Time;durP1;ratioP1;P1;durP2;ratioP2;P2;SDS_P1;SDS_P2;PMS_P1;PMS_P2;Temp;Humidity;BMP_temperature;BMP_pressure;BME280_temperature;BME280_humidity;BME280_pressure;Samples;Min_cycle;Max_cycle;Signal;HPM_P1;HPM_P2
2022/08/10 00:00:22;;;;;;;1.40;1.30;;;19.00;85.50;;;;;;5066713;28;20211;-79
2022/08/10 00:02:49;;;;;;;2.37;1.80;;;19.00;85.50;;;;;;5074618;28;20433;-78
2022/08/10 00:05:15;;;;;;;1.33;1.17;;;18.90;85.60;;;;;;5071286;28;20175;-79
2022/08/10 00:07:40;;;;;;;2.20;1.40;;;18.90;85.80;;;;;;5067572;28;20480;-79
2022/08/10 00:10:07;;;;;;;4.80;1.80;;;18.90;86.00;;;;;;5073637;28;20231;-79
2022/08/10 00:12:32;;;;;;;3.17;2.20;;;18.80;86.10;;;;;;5076788;28;20186;-79
2022/08/10 00:14:59;;;;;;;5.53;2.13;;;18.80;86.20;;;;;;5073139;28;20555;-79
2022/08/10 00:17:25;;;;;;;2.60;2.33;;;18.80;86.30;;;;;;5069290;28;20703;-78
2022/08/10 00:19:50;;;;;;;1.90;1.63;;;18.70;86.30;;;;;;5073085;28;20462;-79
2022/08/10 00:22:16;;;;;;;2.17;1.87;;;18.70;86.40;;;;;;5060325;28;20512;-78
2022/08/10 00:24:42;;;;;;;2.40;1.77;;;18.60;86.40;;;;;;5063325;28;20175;-79
2022/08/10 00:27:07;;;;;;;1.93;1.87;;;18.60;86.40;;;;;;5077129;28;20267;-79
2022/08/10 00:29:33;;;;;;;1.83;1.73;;;18.60;86.60;;;;;;5072851;28;20201;-79
2022/08/10 00:31:58;;;;;;;2.33;1.80;;;18.50;86.90;;;;;;5082789;28;20566;-79
2022/08/10 00:34:24;;;;;;;2.53;2.07;;;18.50;86.80;;;;;;5082769;28;20689;-79
2022/08/10 00:36:49;;;;;;;1.83;1.80;;;18.50;86.90;;;;;;5068725;28;20187;-79
2022/08/10 00:39:15;;;;;;;2.10;1.90;;;18.50;87.00;;;;;;5063706;28;20554;-78
2022/08/10 00:41:40;;;;;;;2.73;2.53;;;18.50;87.20;;;;;;5066747;28;20206;-79
2022/08/10 00:44:06;;;;;;;2.60;2.37;;;18.50;87.30;;;;;;5083118;28;20191;-79
2022/08/10 00:46:32;;;;;;;2.30;1.77;;;18.40;87.50;;;;;;5067277;28;20179;-79
2022/08/10 00:48:57;;;;;;;2.53;1.93;;;18.40;87.50;;;;;;5056437;28;20213;-79
2022/08/10 00:51:23;;;;;;;1.70;1.60;;;18.30;87.60;;;;;;5079963;28;20194;-79
2022/08/10 00:53:49;;;;;;;2.90;2.17;;;18.20;87.70;;;;;;5056028;28;20575;-81
2022/08/10 00:56:14;;;;;;;1.93;1.73;;;18.20;87.90;;;;;;5087396;28;20260;-82
2022/08/10 00:58:40;;;;;;;1.90;1.80;;;18.10;88.10;;;;;;5075721;28;20199;-81
2022/08/10 01:01:06;;;;;;;2.07;1.80;;;18.10;88.30;;;;;;5083600;28;20211;-81
2022/08/10 01:03:31;;;;;;;3.93;2.23;;;18.00;88.30;;;;;;5086094;28;20555;-82
2022/08/10 01:06:33;;;;;;;7.70;2.30;;;18.00;88.50;;;;;;5083900;28;20210;-82
2022/08/10 01:09:10;;;;;;;1.50;1.40;;;18.00;88.90;;;;;;5061752;28;20210;-82
2022/08/10 01:11:48;;;;;;;4.70;2.13;;;17.90;89.10;;;;;;5085933;28;20781;-82
2022/08/10 01:14:38;;;;;;;4.07;2.17;;;17.90;89.10;;;;;;5087272;28;20508;-82
2022/08/10 01:17:38;;;;;;;1.97;1.90;;;17.90;89.20;;;;;;5083762;28;20417;-82
2022/08/10 01:20:19;;;;;;;2.07;1.97;;;17.80;89.20;;;;;;5006305;28;20916;-81
2022/08/10 01:23:16;;;;;;;2.87;2.60;;;17.80;89.30;;;;;;5083570;28;20922;-82
2022/08/10 01:26:04;;;;;;;2.50;2.30;;;17.80;89.50;;;;;;5082968;28;20445;-82
2022/08/10 01:29:07;;;;;;;3.17;2.97;;;17.70;89.80;;;;;;5069702;28;20446;-82
2022/08/10 01:31:41;;;;;;;4.70;1.80;;;17.70;89.90;;;;;;5071300;28;20421;-82
2022/08/10 01:34:11;;;;;;;1.73;1.63;;;17.60;90.20;;;;;;5069363;28;20436;-82
2022/08/10 01:36:45;;;;;;;2.60;1.97;;;17.60;90.30;;;;;;5081714;28;20405;-81
2022/08/10 01:39:22;;;;;;;4.33;2.33;;;17.60;90.50;;;;;;5083009;28;20455;-81
2022/08/10 01:41:53;;;;;;;2.20;2.03;;;17.60;90.60;;;;;;5083183;28;20475;-82
2022/08/10 01:44:31;;;;;;;2.57;2.27;;;17.50;90.70;;;;;;5070386;28;20414;-82
2022/08/10 01:48:27;;;;;;;2.60;1.80;;;17.50;90.80;;;;;;5061663;28;20498;-82
2022/08/10 01:49:49;;;;;;;4.50;2.60;;;17.50;90.90;;;;;;5064900;28;20438;-81
2022/08/10 01:52:19;;;;;;;1.73;1.60;;;17.50;91.00;;;;;;5081825;28;20914;-82
2022/08/10 01:54:46;;;;;;;3.53;2.90;;;17.50;91.20;;;;;;5081619;28;20481;-81
2022/08/10 01:57:15;;;;;;;2.87;2.43;;;17.50;91.50;;;;;;5080613;28;20471;-82
2022/08/10 01:59:43;;;;;;;6.10;2.60;;;17.50;91.50;;;;;;5080324;28;20441;-82
2022/08/10 02:02:12;;;;;;;2.40;2.20;;;17.50;91.50;;;;;;5081103;28;20425;-82
2022/08/10 02:04:40;;;;;;;1.40;1.30;;;17.50;91.70;;;;;;5063663;28;20442;-82
2022/08/10 02:07:09;;;;;;;1.73;1.67;;;17.50;91.70;;;;;;5074232;28;20993;-82
2022/08/10 02:09:39;;;;;;;1.83;1.80;;;17.50;91.80;;;;;;5079622;28;20429;-82
2022/08/10 02:12:14;;;;;;;4.60;2.37;;;17.50;91.80;;;;;;5081182;28;20417;-82
2022/08/10 02:14:55;;;;;;;1.27;1.17;;;17.50;91.90;;;;;;5051803;28;20496;-82
2022/08/10 02:17:33;;;;;;;5.40;1.77;;;17.50;91.90;;;;;;5078464;28;20502;-82
2022/08/10 02:20:04;;;;;;;2.60;1.83;;;17.50;92.10;;;;;;5044252;28;20508;-82
2022/08/10 02:22:30;;;;;;;3.40;2.33;;;17.50;92.20;;;;;;5077937;28;20417;-81
2022/08/10 02:24:57;;;;;;;3.00;2.07;;;17.40;92.40;;;;;;5080560;28;20444;-82
2022/08/10 02:27:24;;;;;;;2.00;1.67;;;17.40;92.50;;;;;;5066931;28;20986;-82
2022/08/10 02:29:51;;;;;;;12.37;2.30;;;17.40;92.60;;;;;;5069953;28;20442;-82
2022/08/10 02:32:21;;;;;;;2.73;2.17;;;17.40;92.60;;;;;;5078730;28;20426;-82
2022/08/10 02:34:49;;;;;;;3.00;2.90;;;17.40;92.70;;;;;;5079702;28;20419;-82
2022/08/10 02:37:18;;;;;;;2.77;2.10;;;17.40;92.60;;;;;;5044589;28;20426;-83
2022/08/10 02:39:44;;;;;;;1.87;1.77;;;17.40;92.70;;;;;;5057636;28;20448;-82
2022/08/10 02:42:22;;;;;;;1.57;1.47;;;17.40;92.70;;;;;;5080992;28;20723;-82
2022/08/10 02:45:02;;;;;;;2.33;2.07;;;17.30;92.90;;;;;;5065638;28;20175;-82
2022/08/10 02:47:46;;;;;;;5.40;1.90;;;17.30;93.10;;;;;;5067134;28;20436;-80
2022/08/10 02:50:24;;;;;;;13.70;2.47;;;17.30;93.30;;;;;;5066229;28;20512;-82
2022/08/10 02:53:00;;;;;;;2.07;1.93;;;17.30;93.10;;;;;;5078469;28;20484;-82
2022/08/10 02:55:55;;;;;;;2.00;1.60;;;17.30;93.10;;;;;;5080254;28;20504;-82
2022/08/10 02:58:29;;;;;;;2.57;2.37;;;17.30;93.20;;;;;;5080978;28;20925;-82
2022/08/10 03:00:56;;;;;;;2.30;1.40;;;17.30;93.30;;;;;;5078660;28;20457;-82
2022/08/10 03:03:25;;;;;;;1.93;1.60;;;17.30;93.20;;;;;;5092745;28;20466;-82
2022/08/10 03:05:55;;;;;;;3.80;2.13;;;17.30;93.50;;;;;;5079974;28;20472;-81
2022/08/10 03:08:26;;;;;;;7.07;2.00;;;17.30;93.40;;;;;;5081321;28;20440;-80
2022/08/10 03:10:53;;;;;;;2.23;2.10;;;17.30;93.50;;;;;;5079766;28;20437;-82
2022/08/10 03:13:22;;;;;;;1.47;1.37;;;17.30;93.50;;;;;;5069406;28;20500;-82
2022/08/10 03:15:50;;;;;;;1.63;1.53;;;17.30;93.70;;;;;;5071688;28;20866;-82
2022/08/10 03:18:18;;;;;;;2.60;2.10;;;17.30;93.60;;;;;;5065011;28;20422;-82
2022/08/10 03:20:45;;;;;;;2.87;2.57;;;17.30;93.80;;;;;;5061512;28;20891;-82
2022/08/10 03:23:17;;;;;;;2.30;1.67;;;17.30;93.90;;;;;;5061127;28;20756;-82
2022/08/10 03:25:45;;;;;;;1.53;1.43;;;17.30;93.80;;;;;;5081094;28;20453;-82
2022/08/10 03:28:12;;;;;;;2.43;1.80;;;17.30;94.00;;;;;;5079002;28;20414;-82
2022/08/10 03:30:38;;;;;;;3.40;2.00;;;17.30;94.00;;;;;;5060048;28;20418;-82
2022/08/10 03:33:05;;;;;;;2.33;1.60;;;17.30;94.10;;;;;;5073785;28;20425;-82
2022/08/10 03:35:32;;;;;;;1.97;1.87;;;17.30;94.10;;;;;;5061100;28;20430;-82
2022/08/10 03:37:58;;;;;;;1.77;1.67;;;17.30;94.40;;;;;;5061001;28;20419;-82
2022/08/10 03:40:27;;;;;;;6.43;1.90;;;17.30;94.30;;;;;;5074174;28;21100;-82
2022/08/10 03:42:57;;;;;;;2.47;2.10;;;17.30;94.30;;;;;;5079822;28;20448;-82
2022/08/10 03:45:23;;;;;;;2.10;1.97;;;17.30;94.30;;;;;;5066496;28;20432;-82
2022/08/10 03:47:50;;;;;;;1.83;1.83;;;17.30;94.50;;;;;;5079890;28;20477;-82
2022/08/10 03:50:16;;;;;;;1.53;1.43;;;17.30;94.50;;;;;;5079459;28;20447;-82
2022/08/10 03:52:43;;;;;;;2.30;2.10;;;17.30;94.50;;;;;;5081734;28;20445;-82
2022/08/10 03:55:10;;;;;;;4.07;2.60;;;17.30;94.60;;;;;;5079144;28;20453;-82
2022/08/10 03:57:36;;;;;;;3.00;2.30;;;17.20;94.70;;;;;;5071719;28;20422;-82
2022/08/10 04:00:03;;;;;;;3.07;2.57;;;17.20;94.70;;;;;;5060105;28;20458;-82
2022/08/10 04:02:30;;;;;;;2.30;2.10;;;17.20;94.80;;;;;;5070562;28;20914;-82
2022/08/10 04:04:55;;;;;;;1.60;1.50;;;17.20;94.90;;;;;;5064119;28;20449;-82
2022/08/10 04:07:21;;;;;;;3.33;2.23;;;17.20;94.90;;;;;;5186914;23;20503;-80
2022/08/10 04:09:47;;;;;;;2.00;1.67;;;17.20;95.00;;;;;;5066920;28;20202;-80
2022/08/10 04:12:14;;;;;;;2.93;1.77;;;17.10;95.10;;;;;;5068284;28;20482;-80
2022/08/10 04:14:40;;;;;;;3.40;2.20;;;17.20;95.20;;;;;;5057713;28;20164;-80
2022/08/10 04:17:05;;;;;;;2.37;2.17;;;17.10;95.30;;;;;;5041145;28;20425;-81
2022/08/10 04:19:40;;;;;;;3.30;2.70;;;17.10;95.40;;;;;;5040543;28;20681;-80
2022/08/10 04:22:12;;;;;;;1.97;1.87;;;17.10;95.30;;;;;;5041629;28;20199;-80
2022/08/10 04:24:40;;;;;;;7.03;2.43;;;17.10;95.40;;;;;;5041369;28;20831;-80
2022/08/10 04:27:07;;;;;;;6.70;3.53;;;17.10;95.50;;;;;;5041279;28;20414;-80
2022/08/10 04:29:32;;;;;;;3.20;2.50;;;17.10;95.50;;;;;;5041399;28;20439;-80
2022/08/10 04:32:00;;;;;;;2.63;2.43;;;17.10;95.60;;;;;;5040806;28;20472;-80
2022/08/10 04:34:30;;;;;;;3.97;1.70;;;17.10;95.70;;;;;;5041371;28;20175;-80
2022/08/10 04:37:03;;;;;;;2.70;2.47;;;17.10;95.60;;;;;;5041225;28;20414;-80
2022/08/10 04:39:29;;;;;;;2.50;2.30;;;17.20;95.80;;;;;;5049920;28;20433;-81
2022/08/10 04:41:56;;;;;;;4.20;2.60;;;17.10;96.10;;;;;;5068591;28;20907;-80
2022/08/10 04:44:22;;;;;;;23.43;3.03;;;17.10;96.10;;;;;;5057819;28;20445;-80
2022/08/10 04:46:47;;;;;;;1.90;1.83;;;17.10;96.30;;;;;;5055362;28;20413;-80
2022/08/10 04:49:13;;;;;;;5.20;2.03;;;17.10;96.50;;;;;;5062069;28;20425;-80
2022/08/10 04:51:38;;;;;;;3.03;1.60;;;17.10;96.60;;;;;;5063018;28;20211;-80
2022/08/10 04:54:04;;;;;;;2.57;2.40;;;17.10;96.70;;;;;;5064034;28;20194;-80
2022/08/10 04:56:30;;;;;;;1.73;1.63;;;17.00;96.70;;;;;;5045516;28;20180;-81
2022/08/10 04:58:55;;;;;;;1.73;1.67;;;17.10;96.70;;;;;;5060405;28;20222;-80
2022/08/10 05:01:21;;;;;;;1.87;1.77;;;17.10;96.70;;;;;;5064140;28;20218;-81
2022/08/10 05:03:46;;;;;;;3.77;2.60;;;17.10;96.90;;;;;;5064960;28;20281;-81
2022/08/10 05:06:12;;;;;;;2.50;1.97;;;17.10;96.90;;;;;;5081674;28;20267;-80
2022/08/10 05:08:38;;;;;;;5.00;2.50;;;17.10;96.90;;;;;;5081888;28;20596;-80
2022/08/10 05:11:03;;;;;;;2.37;2.20;;;17.20;96.80;;;;;;5083944;28;20554;-80
2022/08/10 05:13:29;;;;;;;2.30;2.10;;;17.20;96.80;;;;;;5101053;28;20178;-81
2022/08/10 05:15:55;;;;;;;2.97;2.43;;;17.20;96.80;;;;;;5083826;28;20532;-80
2022/08/10 05:18:21;;;;;;;2.73;1.97;;;17.20;96.90;;;;;;5084446;28;20216;-80
2022/08/10 05:20:46;;;;;;;3.77;2.70;;;17.20;97.10;;;;;;5084068;28;20520;-80
2022/08/10 05:23:12;;;;;;;2.07;1.50;;;17.20;97.30;;;;;;5083109;28;20221;-81
2022/08/10 05:25:38;;;;;;;2.50;1.90;;;17.20;97.30;;;;;;5071173;28;20190;-80
2022/08/10 05:28:04;;;;;;;2.20;1.80;;;17.30;97.30;;;;;;5100883;28;20174;-81
2022/08/10 05:30:29;;;;;;;2.60;2.40;;;17.30;97.30;;;;;;5102560;28;20216;-80
2022/08/10 05:32:55;;;;;;;1.23;1.13;;;17.30;97.10;;;;;;5084170;28;20420;-81
2022/08/10 05:35:21;;;;;;;2.87;2.60;;;17.30;97.20;;;;;;5084558;28;20210;-81
2022/08/10 05:37:49;;;;;;;4.50;2.00;;;17.40;97.20;;;;;;5102530;28;20181;-80
2022/08/10 05:40:15;;;;;;;2.53;1.57;;;17.40;97.20;;;;;;5100981;28;20690;-80
2022/08/10 05:42:40;;;;;;;1.80;1.70;;;17.50;97.30;;;;;;5080772;28;20417;-80
2022/08/10 05:45:12;;;;;;;3.57;2.10;;;17.50;97.30;;;;;;5102421;28;20419;-83
2022/08/10 05:47:38;;;;;;;3.30;2.30;;;17.50;97.30;;;;;;5103291;28;20223;-82
2022/08/10 05:50:04;;;;;;;2.87;2.63;;;17.60;97.30;;;;;;5099965;28;20476;-83
2022/08/10 05:52:29;;;;;;;3.13;2.30;;;17.60;97.30;;;;;;5102577;28;20250;-83
2022/08/10 05:54:55;;;;;;;2.37;2.13;;;17.70;97.30;;;;;;5066428;28;20457;-83
2022/08/10 05:57:22;;;;;;;1.97;1.87;;;17.70;97.30;;;;;;5065759;28;20183;-83
2022/08/10 05:59:55;;;;;;;2.90;2.70;;;17.80;97.30;;;;;;5084707;28;20206;-83
2022/08/10 06:02:30;;;;;;;8.53;2.50;;;17.80;97.20;;;;;;5084997;28;20405;-82
2022/08/10 06:04:59;;;;;;;2.30;2.07;;;17.90;97.10;;;;;;5085774;28;20928;-83
2022/08/10 06:07:27;;;;;;;2.17;1.97;;;18.00;97.10;;;;;;5084635;28;20468;-82
2022/08/10 06:09:55;;;;;;;4.13;1.80;;;18.00;97.00;;;;;;5084739;28;20539;-83
2022/08/10 06:12:22;;;;;;;2.57;2.40;;;18.10;97.00;;;;;;5084904;28;20448;-83
2022/08/10 06:15:01;;;;;;;3.83;2.57;;;18.10;96.80;;;;;;5103726;28;20957;-83
2022/08/10 06:17:30;;;;;;;4.40;1.80;;;18.20;96.80;;;;;;5084804;28;20428;-83
2022/08/10 06:19:57;;;;;;;3.77;2.10;;;18.30;96.40;;;;;;5085249;28;21087;-83
2022/08/10 06:22:25;;;;;;;1.93;1.87;;;18.30;96.30;;;;;;5103486;28;20492;-83
2022/08/10 06:24:52;;;;;;;1.63;1.53;;;18.40;96.20;;;;;;5084309;28;20448;-83
2022/08/10 06:27:18;;;;;;;6.67;3.00;;;18.50;96.30;;;;;;5090269;28;20852;-83
2022/08/10 06:29:45;;;;;;;2.50;2.30;;;18.50;96.00;;;;;;5084096;28;20447;-83
2022/08/10 06:32:12;;;;;;;1.77;1.73;;;18.60;96.00;;;;;;5102124;28;20174;-82
2022/08/10 06:34:48;;;;;;;2.07;1.70;;;18.70;95.90;;;;;;5100902;28;20421;-82
2022/08/10 06:37:16;;;;;;;6.30;2.60;;;18.80;95.60;;;;;;5090803;28;20431;-83
2022/08/10 06:39:43;;;;;;;1.83;1.80;;;18.80;95.30;;;;;;5081525;28;20472;-83
2022/08/10 06:42:13;;;;;;;2.53;2.33;;;18.90;95.20;;;;;;5081376;28;20433;-83
2022/08/10 06:44:44;;;;;;;5.30;2.70;;;18.90;95.30;;;;;;5081985;28;20418;-83
2022/08/10 06:47:12;;;;;;;2.20;2.07;;;19.00;95.20;;;;;;5081777;28;20895;-83
2022/08/10 06:49:38;;;;;;;2.60;2.20;;;19.10;95.20;;;;;;5085990;28;20770;-83
2022/08/10 06:52:08;;;;;;;2.90;2.43;;;19.10;94.80;;;;;;5088529;28;20500;-83
2022/08/10 06:54:35;;;;;;;3.60;2.77;;;19.20;94.70;;;;;;5100036;28;20210;-83
2022/08/10 06:57:01;;;;;;;3.63;2.50;;;19.30;94.60;;;;;;5102573;28;20416;-83
2022/08/10 06:59:42;;;;;;;5.40;2.43;;;19.40;94.40;;;;;;5100808;28;20424;-83
2022/08/10 07:02:24;;;;;;;3.47;2.40;;;19.40;94.10;;;;;;5097131;28;20452;-83
2022/08/10 07:04:55;;;;;;;3.70;2.77;;;19.50;93.90;;;;;;5090966;28;20455;-83
2022/08/10 07:07:24;;;;;;;2.50;2.30;;;19.60;93.60;;;;;;5082666;28;20468;-83
2022/08/10 07:09:51;;;;;;;6.13;3.00;;;19.70;93.40;;;;;;5083336;28;20444;-82
2022/08/10 07:12:20;;;;;;;3.10;2.30;;;19.80;93.40;;;;;;5082767;28;20427;-81
2022/08/10 07:14:47;;;;;;;2.37;2.17;;;19.80;93.20;;;;;;5080848;28;20419;-80
2022/08/10 07:17:22;;;;;;;2.70;2.50;;;19.90;93.00;;;;;;5080385;28;20418;-80
2022/08/10 07:19:52;;;;;;;2.70;2.30;;;20.00;92.70;;;;;;5073910;28;20506;-80
2022/08/10 07:22:20;;;;;;;5.20;3.43;;;20.10;92.40;;;;;;5100406;28;20443;-80
2022/08/10 07:24:47;;;;;;;1.70;1.70;;;20.20;92.30;;;;;;5099999;28;20423;-81
2022/08/10 07:27:15;;;;;;;2.27;1.50;;;20.30;92.30;;;;;;5080210;28;20428;-82
2022/08/10 07:29:42;;;;;;;4.27;2.53;;;20.40;91.40;;;;;;5095359;28;20459;-81
2022/08/10 07:32:10;;;;;;;2.67;2.00;;;20.50;91.20;;;;;;5092062;28;20463;-81
2022/08/10 07:34:38;;;;;;;3.40;2.33;;;20.60;90.40;;;;;;5089214;28;20432;-82
2022/08/10 07:37:07;;;;;;;2.43;2.23;;;20.70;89.70;;;;;;5099125;28;20854;-81
2022/08/10 07:39:37;;;;;;;2.33;2.03;;;20.80;89.80;;;;;;5082979;28;20455;-81
2022/08/10 07:42:06;;;;;;;3.17;2.00;;;20.80;89.90;;;;;;5083651;28;20416;-81
2022/08/10 07:44:34;;;;;;;2.40;1.73;;;21.00;89.60;;;;;;5083223;28;20921;-81
2022/08/10 07:47:03;;;;;;;1.87;1.80;;;21.10;89.20;;;;;;5101077;28;20458;-81
2022/08/10 07:49:37;;;;;;;13.40;1.83;;;21.20;88.40;;;;;;5082417;28;20432;-81
2022/08/10 07:52:06;;;;;;;3.37;2.70;;;21.30;87.70;;;;;;5090653;28;20432;-80
2022/08/10 07:54:37;;;;;;;2.00;1.83;;;21.40;86.80;;;;;;5081404;28;20449;-81
2022/08/10 07:57:08;;;;;;;1.57;1.50;;;21.60;86.90;;;;;;5092257;28;20416;-80
2022/08/10 07:59:41;;;;;;;4.50;1.53;;;21.70;86.80;;;;;;5069697;28;20429;-80
2022/08/10 08:02:24;;;;;;;4.40;1.70;;;21.80;86.30;;;;;;5093685;28;20417;-81
2022/08/10 08:04:53;;;;;;;2.93;2.20;;;21.90;86.10;;;;;;5082485;28;20470;-80
2022/08/10 08:07:19;;;;;;;6.50;2.77;;;22.00;85.20;;;;;;5076101;28;20461;-81
2022/08/10 08:09:46;;;;;;;1.87;1.77;;;22.10;85.30;;;;;;5061977;28;20447;-81
2022/08/10 08:12:14;;;;;;;6.30;1.83;;;22.20;85.00;;;;;;5079457;28;20417;-81
2022/08/10 08:14:42;;;;;;;2.43;2.23;;;22.30;85.00;;;;;;5078995;28;20774;-81
2022/08/10 08:17:09;;;;;;;21.83;3.73;;;22.40;84.60;;;;;;5057899;28;20517;-81
2022/08/10 08:19:36;;;;;;;2.23;1.33;;;22.50;84.60;;;;;;5053292;28;20486;-81
2022/08/10 08:22:04;;;;;;;1.30;1.20;;;22.60;85.10;;;;;;5065617;28;20453;-80
2022/08/10 08:24:33;;;;;;;2.53;1.87;;;22.70;84.60;;;;;;5079126;28;20806;-80
2022/08/10 08:27:01;;;;;;;1.93;1.60;;;22.80;84.40;;;;;;5068617;28;20506;-80
2022/08/10 08:29:27;;;;;;;2.23;2.03;;;23.00;83.50;;;;;;5074047;28;20448;-81
2022/08/10 08:31:54;;;;;;;1.37;1.30;;;23.10;83.20;;;;;;5082200;28;20420;-81
2022/08/10 08:34:20;;;;;;;2.77;1.87;;;23.20;82.90;;;;;;5084543;28;20425;-81
2022/08/10 08:36:48;;;;;;;2.50;1.63;;;23.30;82.00;;;;;;5068294;28;20425;-80
2022/08/10 08:39:15;;;;;;;1.87;1.80;;;23.40;82.20;;;;;;5051150;28;20445;-80
2022/08/10 08:41:46;;;;;;;1.27;1.20;;;23.50;82.40;;;;;;5065327;28;20460;-80
2022/08/10 08:44:38;;;;;;;4.90;1.97;;;23.60;81.00;;;;;;5080563;28;20421;-81
2022/08/10 08:47:26;;;;;;;2.27;1.83;;;23.70;80.60;;;;;;5054582;28;20418;-80
2022/08/10 08:50:07;;;;;;;2.27;1.57;;;23.90;80.40;;;;;;5052892;28;20448;-80
2022/08/10 08:52:57;;;;;;;1.43;1.40;;;23.90;80.10;;;;;;5082052;28;20489;-81
2022/08/10 08:55:51;;;;;;;1.30;1.20;;;24.10;80.70;;;;;;5065002;28;20397;-80
2022/08/10 08:58:26;;;;;;;3.00;1.97;;;24.20;79.40;;;;;;5065690;28;20685;-81
2022/08/10 09:01:17;;;;;;;1.60;1.40;;;24.30;79.10;;;;;;5065212;28;20479;-80
2022/08/10 09:03:56;;;;;;;2.83;1.80;;;24.30;78.90;;;;;;5065401;28;20409;-80
2022/08/10 09:06:51;;;;;;;2.40;2.20;;;24.40;78.00;;;;;;5057972;28;20947;-81
2022/08/10 09:09:54;;;;;;;2.40;1.50;;;24.50;78.60;;;;;;5052825;28;20840;-81
2022/08/10 09:12:32;;;;;;;1.67;1.37;;;24.60;77.70;;;;;;5081050;28;20401;-81
2022/08/10 09:15:25;;;;;;;3.37;2.53;;;24.70;76.10;;;;;;5052299;28;20411;-81
2022/08/10 09:18:06;;;;;;;1.33;1.30;;;24.80;76.10;;;;;;5061923;28;20977;-82
2022/08/10 09:20:35;;;;;;;3.90;1.83;;;24.80;76.00;;;;;;5080911;28;20473;-81
2022/08/10 09:23:33;;;;;;;2.10;1.97;;;24.90;75.20;;;;;;5069014;28;20424;-81
2022/08/10 09:26:06;;;;;;;1.30;1.30;;;24.90;75.10;;;;;;5055464;28;20421;-81
2022/08/10 09:28:37;;;;;;;3.30;2.03;;;25.00;75.20;;;;;;5064844;28;20425;-81
2022/08/10 09:31:07;;;;;;;1.40;1.30;;;25.00;75.70;;;;;;5064999;28;20461;-81
2022/08/10 09:33:59;;;;;;;1.77;1.70;;;25.00;76.60;;;;;;5045759;28;20442;-81
2022/08/10 09:36:42;;;;;;;1.53;1.43;;;25.10;76.00;;;;;;5065929;28;20930;-81
2022/08/10 09:39:30;;;;;;;3.40;2.30;;;25.20;75.60;;;;;;5063500;28;20942;-81
2022/08/10 09:42:24;;;;;;;1.63;1.53;;;25.30;75.50;;;;;;5054444;28;20500;-81
2022/08/10 09:45:31;;;;;;;4.60;1.57;;;25.40;75.20;;;;;;5080572;28;20417;-81
2022/08/10 09:48:24;;;;;;;1.43;1.40;;;25.40;74.60;;;;;;5081405;28;20413;-81
2022/08/10 09:51:06;;;;;;;2.07;1.83;;;25.30;74.70;;;;;;5079223;28;20455;-81
2022/08/10 09:54:14;;;;;;;12.97;2.33;;;25.40;74.60;;;;;;5039545;28;20493;-81
2022/08/10 09:56:56;;;;;;;3.00;1.97;;;25.40;74.60;;;;;;5054792;28;20811;-80
2022/08/10 09:59:29;;;;;;;1.73;1.63;;;25.30;74.50;;;;;;5074141;28;20440;-81
2022/08/10 10:02:05;;;;;;;3.77;2.77;;;25.30;74.00;;;;;;5080388;28;20445;-82
2022/08/10 10:04:51;;;;;;;1.53;1.50;;;25.40;73.90;;;;;;5068345;28;20793;-81
2022/08/10 10:10:19;;;;;;;1.10;1.10;;;25.60;74.40;;;;;;5061413;28;20504;-84
2022/08/10 10:13:08;;;;;;;1.40;1.30;;;25.80;73.60;;;;;;5041797;28;20415;-83
2022/08/10 10:15:43;;;;;;;1.20;1.10;;;25.90;72.80;;;;;;5035732;28;20410;-83
2022/08/10 10:18:20;;;;;;;3.30;2.17;;;26.00;72.40;;;;;;5034800;28;21219;-83
2022/08/10 10:21:15;;;;;;;2.60;1.40;;;26.10;72.70;;;;;;5035080;28;20468;-84
2022/08/10 10:24:14;;;;;;;1.73;1.30;;;26.20;73.00;;;;;;5035485;28;20433;-83
2022/08/10 10:27:18;;;;;;;1.80;1.50;;;26.30;72.10;;;;;;5048736;28;20417;-84
2022/08/10 10:30:03;;;;;;;5.40;1.57;;;26.40;72.50;;;;;;5007882;28;20944;-83
2022/08/10 10:32:50;;;;;;;1.70;1.70;;;26.60;71.60;;;;;;5024066;28;20834;-83
2022/08/10 10:35:28;;;;;;;2.83;2.10;;;26.70;71.70;;;;;;5039434;28;20508;-83
2022/08/10 10:37:56;;;;;;;1.70;1.57;;;26.70;71.30;;;;;;5041644;28;20413;-84
2022/08/10 10:40:25;;;;;;;1.23;1.23;;;26.80;70.90;;;;;;5028996;28;20456;-83
2022/08/10 10:43:03;;;;;;;1.87;1.70;;;26.80;71.20;;;;;;5054662;28;20417;-83
2022/08/10 10:45:35;;;;;;;3.70;1.77;;;26.80;71.20;;;;;;5056739;28;20418;-84
2022/08/10 10:48:24;;;;;;;2.73;2.53;;;26.90;71.30;;;;;;5051946;28;20406;-83
2022/08/10 10:50:55;;;;;;;1.27;1.17;;;27.00;71.60;;;;;;5034427;28;20414;-83
2022/08/10 10:53:33;;;;;;;1.30;1.30;;;27.10;70.60;;;;;;5047490;28;20856;-84
2022/08/10 10:56:42;;;;;;;2.20;2.00;;;27.20;70.10;;;;;;5045112;28;20509;-84
2022/08/10 10:59:46;;;;;;;3.53;2.20;;;27.20;70.30;;;;;;5021534;28;20749;-84
2022/08/10 11:02:44;;;;;;;2.40;2.23;;;27.30;69.80;;;;;;5050188;28;20655;-84
2022/08/10 11:05:32;;;;;;;21.83;1.70;;;27.50;70.30;;;;;;5046417;28;20426;-84
2022/08/10 11:08:10;;;;;;;4.93;2.03;;;27.60;69.50;;;;;;5034128;28;20461;-83
2022/08/10 11:10:43;;;;;;;3.03;1.63;;;27.70;67.80;;;;;;5064925;28;20439;-84
2022/08/10 11:13:27;;;;;;;1.97;1.87;;;27.70;68.30;;;;;;5053899;28;20478;-84
2022/08/10 11:16:23;;;;;;;1.80;1.80;;;27.80;69.90;;;;;;5053833;28;20414;-84
2022/08/10 11:19:06;;;;;;;2.43;1.80;;;28.00;68.90;;;;;;5060656;28;20430;-83
2022/08/10 11:22:05;;;;;;;1.37;1.30;;;28.00;68.80;;;;;;5053960;28;20465;-84
2022/08/10 11:24:36;;;;;;;1.80;1.63;;;27.90;69.00;;;;;;5054184;28;20414;-84
2022/08/10 11:27:30;;;;;;;1.80;1.40;;;27.80;68.90;;;;;;5053933;28;20418;-83
2022/08/10 11:30:12;;;;;;;1.33;1.27;;;27.70;68.90;;;;;;5053856;28;20857;-84
2022/08/10 11:33:02;;;;;;;1.53;1.17;;;27.70;69.80;;;;;;5053581;28;20420;-84
2022/08/10 11:35:46;;;;;;;1.47;1.37;;;27.80;68.60;;;;;;5053667;28;20930;-84
2022/08/10 11:38:21;;;;;;;1.70;1.60;;;27.80;68.30;;;;;;5058865;28;20521;-83
2022/08/10 11:40:58;;;;;;;3.53;2.27;;;27.70;67.90;;;;;;5053623;28;20472;-84
2022/08/10 11:43:28;;;;;;;2.13;1.97;;;27.60;68.70;;;;;;5053732;28;20777;-84
2022/08/10 11:46:11;;;;;;;3.00;2.33;;;27.50;68.60;;;;;;5053588;28;20410;-84
2022/08/10 11:48:48;;;;;;;1.70;1.60;;;27.30;68.50;;;;;;5053456;28;20977;-84
2022/08/10 11:51:37;;;;;;;7.60;3.10;;;27.20;68.50;;;;;;5053703;28;20425;-84
2022/08/10 11:54:20;;;;;;;1.53;1.40;;;27.10;69.30;;;;;;5070597;28;21014;-84
2022/08/10 11:56:49;;;;;;;3.67;1.70;;;27.10;70.60;;;;;;5059476;28;20780;-84
2022/08/10 12:02:05;;;;;;;3.23;1.80;;;27.60;71.70;;;;;;5070906;28;20471;-84
2022/08/10 12:04:33;;;;;;;9.30;3.10;;;28.00;70.20;;;;;;5053390;28;20768;-84
2022/08/10 12:07:03;;;;;;;2.13;1.97;;;28.20;68.30;;;;;;5058097;28;20431;-84
2022/08/10 12:09:30;;;;;;;1.57;1.47;;;28.30;67.80;;;;;;5037010;28;20498;-84
2022/08/10 12:11:58;;;;;;;3.20;1.90;;;28.40;68.00;;;;;;5030132;28;20424;-84
2022/08/10 12:14:34;;;;;;;1.53;1.50;;;28.40;68.50;;;;;;5043175;28;20426;-84
2022/08/10 12:17:12;;;;;;;2.40;1.53;;;28.40;67.90;;;;;;5037313;28;20524;-84
2022/08/10 12:19:44;;;;;;;2.33;1.63;;;28.20;66.80;;;;;;5036558;28;20447;-84
2022/08/10 12:22:13;;;;;;;1.80;1.70;;;28.10;67.10;;;;;;5040285;28;20467;-84
2022/08/10 12:24:48;;;;;;;2.60;1.90;;;28.00;67.10;;;;;;5029752;28;20416;-84
2022/08/10 12:27:20;;;;;;;4.03;1.80;;;27.90;67.90;;;;;;5031139;28;20422;-84
2022/08/10 12:29:55;;;;;;;2.47;1.93;;;27.80;67.90;;;;;;5029957;28;20506;-85
2022/08/10 12:32:37;;;;;;;2.07;1.50;;;27.80;68.30;;;;;;5030036;28;20419;-84
2022/08/10 12:35:11;;;;;;;3.10;2.00;;;27.70;67.70;;;;;;5029999;28;20876;-84
2022/08/10 12:38:01;;;;;;;2.03;1.50;;;27.70;67.80;;;;;;5029681;28;20423;-85
2022/08/10 12:40:30;;;;;;;2.57;1.90;;;27.60;67.50;;;;;;5042417;28;20489;-84
2022/08/10 12:43:17;;;;;;;1.90;1.80;;;27.60;68.20;;;;;;5017283;28;20910;-84
2022/08/10 12:46:05;;;;;;;3.07;1.83;;;27.60;68.20;;;;;;5030837;28;20435;-84
2022/08/10 12:48:53;;;;;;;1.50;1.40;;;27.60;69.00;;;;;;5042673;28;20445;-84
2022/08/10 12:51:30;;;;;;;2.23;1.70;;;27.90;70.00;;;;;;5019516;28;20455;-84
2022/08/10 12:54:12;;;;;;;2.80;1.97;;;28.20;67.80;;;;;;5029788;28;20419;-84
2022/08/10 12:56:44;;;;;;;2.70;1.97;;;28.60;67.50;;;;;;5029458;28;20423;-84
2022/08/10 12:59:12;;;;;;;1.70;1.60;;;29.00;67.10;;;;;;5017455;28;20478;-85
2022/08/10 13:01:38;;;;;;;1.40;1.40;;;29.30;67.10;;;;;;5029771;28;20466;-84
2022/08/10 13:04:08;;;;;;;6.77;1.70;;;29.50;65.70;;;;;;5001507;28;20430;-84
2022/08/10 13:06:37;;;;;;;2.90;2.47;;;29.50;64.50;;;;;;5034724;28;20913;-84
2022/08/10 13:09:08;;;;;;;1.90;1.87;;;29.30;65.10;;;;;;5036874;28;20550;-85
2022/08/10 13:11:46;;;;;;;3.13;2.27;;;29.20;65.50;;;;;;5035879;28;20416;-84
2022/08/10 13:14:32;;;;;;;2.33;2.10;;;29.10;65.60;;;;;;5054277;28;20929;-84
2022/08/10 13:17:00;;;;;;;2.30;1.90;;;28.90;65.90;;;;;;5028264;28;20512;-84
2022/08/10 13:19:28;;;;;;;1.70;1.60;;;28.80;66.30;;;;;;5052101;28;20462;-83
2022/08/10 13:21:56;;;;;;;2.73;1.60;;;28.70;65.60;;;;;;5046851;28;20459;-84